Hlavní strana
METAR-TAF:

METAR-TAF

Letiště :

Palanga, Litva

zeměpisná šířka: 55-55-12N, zeměpisná délka: 021-03E, výška: 10 m

Aktuální stav počasí

Zpráva byla vytvořena před 28 minutami, v 03:50 UTC
Západní vítr 3 kt, proměnlivý mezi jihojihozápadním a západoseverozápadním
Teplota 4°C
Vlhkost vzduchu 100%
Tlak 1031 hPa
Viditelnost 10 km a více

METAR: EYPA 050350Z AUTO 26003KT 210V300 9999 NCD 04/04 Q1031

Čas: 07:18 (04:18 UTC)

Předpověď počasí

Zpráva byla vytvořena před 5 hodinami a 18 minutami, v 23:00 UTC
Předpověď platná od 05 v 00 UTC do 05 v 24 UTC
Západní vítr 6 kt
Viditelnost: 5000 m
kouřmo
Dočasný
od 05 v 00 UTC do 05 v 06 UTC
Viditelnost: 3000 m
Polojasno ve výšce 500 ft
Dočasný
od 05 v 06 UTC do 05 v 09 UTC
Polojasno ve výšce 500 ft
Změna
od 05 v 09 UTC do 05 v 10 UTC
Viditelnost: 9000 m
Změna
od 05 v 15 UTC do 05 v 16 UTC
Jižní vítr 4 kt

TAF: EYPA 042300Z 0500/0524 27006KT 5000 BR NSC TEMPO 0500/0506 3000 SCT005 TEMPO 0506/0509 SCT005 BECMG 0509/0510 9000 BECMG 0515/0516 18004KT

Stav a předpovědi počasí z více než 4 000 letišť (zprávy METAR a TAF).

Červené a žluté tečky na mapě představují dostupné meteorologické stanice.

Když kurzor umístíte na tečku, zobrazí se název stanice.

Pak kliknutím zobrazíte stav a předpověď počasí.

Chcete-li změnit mapu, kliknutím na zelené tlačítko se znaménkem +mapu přiblížíte, kliknutím na zelené tlačítko se znaménkem – mapu oddálíte a kliknutím na zelené šipky přejdete na sousední mapy.


METAR-TAF: